Time;durP1;ratioP1;P1;durP2;ratioP2;P2;SDS_P1;SDS_P2;PMS_P1;PMS_P2;Temp;Humidity;BMP_temperature;BMP_pressure;BME280_temperature;BME280_humidity;BME280_pressure;Samples;Min_cycle;Max_cycle;Signal;HPM_P1;HPM_P2
2022/12/18 00:01:58;;;;;;;65.17;34.43;;;-12.70;99.90;;;;;;5095931;28;20488;-75
2022/12/18 00:04:27;;;;;;;66.47;34.30;;;-12.70;99.90;;;;;;5095492;28;20517;-74
2022/12/18 00:06:54;;;;;;;67.80;36.50;;;-12.60;99.90;;;;;;5095460;28;20450;-74
2022/12/18 00:09:20;;;;;;;63.70;34.30;;;-12.70;99.90;;;;;;5095389;28;20533;-74
2022/12/18 00:11:47;;;;;;;71.90;35.13;;;-12.60;99.90;;;;;;5095463;28;20253;-75
2022/12/18 00:14:15;;;;;;;70.30;35.47;;;-12.60;99.90;;;;;;5095234;28;20793;-75
2022/12/18 00:16:45;;;;;;;69.90;36.93;;;-12.40;99.90;;;;;;5095285;28;20192;-74
2022/12/18 00:19:11;;;;;;;78.63;38.13;;;-12.30;99.90;;;;;;5095110;28;20489;-75
2022/12/18 00:21:38;;;;;;;71.33;36.70;;;-12.30;99.90;;;;;;5095536;28;20204;-75
2022/12/18 00:24:05;;;;;;;71.60;36.47;;;-12.10;99.90;;;;;;5095120;28;20230;-75
2022/12/18 00:26:34;;;;;;;75.70;35.93;;;-12.10;99.90;;;;;;5095128;28;20438;-75
2022/12/18 00:29:01;;;;;;;84.60;38.40;;;-12.10;99.90;;;;;;5095301;28;20498;-75
2022/12/18 00:31:29;;;;;;;73.57;38.43;;;-12.00;99.90;;;;;;5095279;28;20196;-75
2022/12/18 00:33:57;;;;;;;75.23;38.33;;;-12.10;99.90;;;;;;5095264;28;20777;-75
2022/12/18 00:36:26;;;;;;;77.77;36.90;;;-12.10;99.90;;;;;;5081966;28;20443;-75
2022/12/18 00:38:55;;;;;;;73.63;37.40;;;-12.10;99.90;;;;;;5074770;28;20467;-75
2022/12/18 00:44:03;;;;;;;76.90;37.10;;;-12.20;99.90;;;;;;5074226;28;21121;-75
2022/12/18 00:46:31;;;;;;;72.50;37.57;;;-12.10;99.90;;;;;;5074696;28;20193;-75
2022/12/18 00:48:58;;;;;;;67.73;36.17;;;-12.20;99.90;;;;;;5074543;28;20209;-75
2022/12/18 00:51:25;;;;;;;75.47;38.23;;;-12.20;99.90;;;;;;5074008;28;20200;-75
2022/12/18 00:53:52;;;;;;;80.83;37.97;;;-12.20;99.90;;;;;;5074908;28;20611;-75
2022/12/18 00:56:22;;;;;;;83.07;38.37;;;-12.30;99.90;;;;;;5074314;28;20205;-75
2022/12/18 00:58:49;;;;;;;85.47;39.93;;;-12.40;99.90;;;;;;5073959;28;20197;-75
2022/12/18 01:01:16;;;;;;;74.70;36.97;;;-12.40;99.90;;;;;;5074546;28;20231;-75
2022/12/18 01:03:44;;;;;;;71.90;36.40;;;-12.30;99.90;;;;;;5074687;28;20530;-75
2022/12/18 01:06:13;;;;;;;74.47;37.70;;;-12.20;99.90;;;;;;5074207;28;20250;-75
2022/12/18 01:08:40;;;;;;;75.93;36.93;;;-12.20;99.90;;;;;;5073844;28;20266;-75
2022/12/18 01:11:09;;;;;;;79.43;36.43;;;-12.20;99.90;;;;;;5073955;28;20193;-75
2022/12/18 01:13:36;;;;;;;76.27;38.23;;;-12.20;99.90;;;;;;5073984;28;20254;-75
2022/12/18 01:16:03;;;;;;;78.03;37.77;;;-12.20;99.90;;;;;;5073571;28;20446;-75
2022/12/18 01:18:29;;;;;;;76.97;37.13;;;-12.20;99.90;;;;;;5074243;28;20254;-75
2022/12/18 01:20:57;;;;;;;74.60;38.30;;;-12.10;99.90;;;;;;5073702;28;20225;-75
2022/12/18 01:23:24;;;;;;;79.03;37.83;;;-12.20;99.90;;;;;;5073916;28;20248;-75
2022/12/18 01:25:51;;;;;;;69.93;37.73;;;-12.20;99.90;;;;;;5073969;28;20246;-75
2022/12/18 01:28:17;;;;;;;75.73;38.80;;;-12.00;99.90;;;;;;5073884;28;20201;-75
2022/12/18 01:30:44;;;;;;;78.70;38.37;;;-11.80;99.90;;;;;;5073778;28;20200;-74
2022/12/18 01:33:11;;;;;;;80.00;38.40;;;-11.60;99.90;;;;;;5073644;28;20250;-75
2022/12/18 01:35:41;;;;;;;84.33;39.50;;;-11.50;99.90;;;;;;5073670;28;20347;-75
2022/12/18 01:38:09;;;;;;;76.17;39.23;;;-11.40;99.90;;;;;;5073872;28;20204;-75
2022/12/18 01:40:36;;;;;;;82.33;38.23;;;-11.30;99.90;;;;;;5073376;28;20216;-75
2022/12/18 01:43:03;;;;;;;87.10;39.30;;;-11.30;99.90;;;;;;5073812;28;20200;-75
2022/12/18 01:45:31;;;;;;;81.67;37.87;;;-11.20;99.90;;;;;;5073565;28;20242;-74
2022/12/18 01:48:00;;;;;;;83.47;39.23;;;-11.10;99.90;;;;;;5073440;28;20227;-75
2022/12/18 01:50:33;;;;;;;79.87;37.97;;;-10.90;99.90;;;;;;5073366;28;20203;-75
2022/12/18 01:53:04;;;;;;;79.53;39.10;;;-10.80;99.90;;;;;;5073363;28;20283;-75
2022/12/18 01:55:37;;;;;;;82.17;38.20;;;-10.70;99.90;;;;;;5073705;28;20223;-75
2022/12/18 01:58:04;;;;;;;74.63;36.60;;;-10.50;99.90;;;;;;5074417;28;20201;-75
2022/12/18 02:00:32;;;;;;;74.07;36.53;;;-10.50;99.90;;;;;;5074381;28;20695;-75
2022/12/18 02:02:58;;;;;;;74.20;36.77;;;-10.50;99.90;;;;;;5073697;28;20200;-75
2022/12/18 02:05:36;;;;;;;77.53;37.60;;;-10.40;99.90;;;;;;5073133;28;20197;-75
2022/12/18 02:08:10;;;;;;;70.30;35.33;;;-10.40;99.90;;;;;;5073688;28;20196;-75
2022/12/18 02:10:46;;;;;;;77.20;37.60;;;-10.40;99.90;;;;;;5073297;28;20269;-75
2022/12/18 02:13:19;;;;;;;73.27;36.57;;;-10.40;99.90;;;;;;5073486;28;20192;-75
2022/12/18 02:15:55;;;;;;;65.10;33.50;;;-10.30;99.90;;;;;;5073196;28;20200;-75
2022/12/18 02:18:27;;;;;;;71.27;35.83;;;-10.30;99.90;;;;;;5073291;28;20317;-75
2022/12/18 02:20:58;;;;;;;73.73;34.90;;;-10.30;99.90;;;;;;5075287;28;20266;-75
2022/12/18 02:23:45;;;;;;;79.63;36.80;;;-10.20;99.90;;;;;;5077512;28;20254;-74
2022/12/18 02:26:19;;;;;;;68.67;34.43;;;-10.20;99.90;;;;;;5077027;28;20258;-75
2022/12/18 02:28:50;;;;;;;72.07;35.83;;;-10.20;99.90;;;;;;5077035;28;20254;-75
2022/12/18 02:31:22;;;;;;;70.03;34.73;;;-10.10;99.90;;;;;;5077064;28;20201;-75
2022/12/18 02:33:51;;;;;;;77.77;34.77;;;-10.10;99.90;;;;;;5077316;28;20253;-75
2022/12/18 02:36:20;;;;;;;72.53;34.43;;;-10.00;99.90;;;;;;5076880;28;20254;-75
2022/12/18 02:38:48;;;;;;;77.10;34.87;;;-9.90;99.90;;;;;;5076660;28;20552;-75
2022/12/18 02:41:17;;;;;;;78.77;36.73;;;-9.90;99.90;;;;;;5076928;28;20278;-75
2022/12/18 02:43:51;;;;;;;81.87;37.17;;;-9.80;99.90;;;;;;5077151;28;20200;-75
2022/12/18 02:46:33;;;;;;;85.60;36.90;;;-9.70;99.90;;;;;;5082969;28;20200;-75
2022/12/18 02:49:12;;;;;;;81.73;34.50;;;-9.80;99.90;;;;;;5076741;28;20604;-75
2022/12/18 02:51:48;;;;;;;89.00;37.93;;;-9.80;99.90;;;;;;5076772;28;20205;-75
2022/12/18 02:54:22;;;;;;;86.07;36.73;;;-9.80;99.90;;;;;;5076863;28;20196;-75
2022/12/18 02:56:55;;;;;;;97.77;37.73;;;-9.70;99.90;;;;;;5076549;28;20200;-75
2022/12/18 02:59:30;;;;;;;88.67;37.03;;;-9.60;99.90;;;;;;5076429;28;20201;-75
2022/12/18 03:02:02;;;;;;;92.50;36.70;;;-9.60;99.90;;;;;;5076512;28;20604;-75
2022/12/18 03:04:37;;;;;;;87.20;36.37;;;-9.50;99.90;;;;;;5076092;28;20700;-75
2022/12/18 03:07:08;;;;;;;99.20;36.43;;;-9.50;99.90;;;;;;5076186;28;20671;-75
2022/12/18 03:09:39;;;;;;;88.27;37.57;;;-9.40;99.90;;;;;;5076155;28;20616;-75
2022/12/18 03:12:25;;;;;;;90.50;35.83;;;-9.50;99.90;;;;;;5076053;28;20185;-75
2022/12/18 03:14:56;;;;;;;97.53;35.27;;;-9.40;99.90;;;;;;5076618;28;20193;-75
2022/12/18 03:17:26;;;;;;;94.13;35.40;;;-9.40;99.90;;;;;;5076461;28;20251;-75
2022/12/18 03:19:55;;;;;;;115.23;36.57;;;-9.40;99.90;;;;;;5076081;28;20217;-75
2022/12/18 03:22:24;;;;;;;115.57;38.70;;;-9.30;99.90;;;;;;5076042;28;20250;-75
2022/12/18 03:24:52;;;;;;;91.97;36.53;;;-9.30;99.90;;;;;;5075967;28;20205;-75
2022/12/18 03:27:24;;;;;;;108.43;36.33;;;-9.20;99.90;;;;;;5076125;28;20259;-75
2022/12/18 03:30:02;;;;;;;99.00;37.43;;;-9.20;99.90;;;;;;5076164;28;20209;-75
2022/12/18 03:32:33;;;;;;;97.50;36.27;;;-9.10;99.90;;;;;;5074724;28;20200;-75
2022/12/18 03:35:04;;;;;;;104.47;36.67;;;-9.00;99.90;;;;;;5075803;28;20250;-75
2022/12/18 03:37:31;;;;;;;95.03;36.83;;;-8.90;99.90;;;;;;5076047;28;20606;-75
2022/12/18 03:39:58;;;;;;;96.30;36.67;;;-8.80;99.90;;;;;;5075894;28;20271;-75
2022/12/18 03:42:30;;;;;;;96.87;37.33;;;-8.70;99.90;;;;;;5075736;28;20197;-74
2022/12/18 03:45:03;;;;;;;85.13;35.23;;;-8.60;99.90;;;;;;5075529;28;20224;-75
2022/12/18 03:47:35;;;;;;;91.93;36.97;;;-8.50;99.90;;;;;;5075584;28;20204;-75
2022/12/18 03:50:12;;;;;;;89.60;36.20;;;-8.50;99.90;;;;;;5075668;28;20201;-75
2022/12/18 03:52:43;;;;;;;89.50;35.87;;;-8.40;99.90;;;;;;5075686;28;20217;-75
2022/12/18 03:55:11;;;;;;;86.80;37.13;;;-8.30;99.90;;;;;;5075705;28;20198;-75
2022/12/18 03:57:42;;;;;;;94.77;36.67;;;-8.30;99.90;;;;;;5075410;28;20199;-75
2022/12/18 04:00:12;;;;;;;98.60;36.87;;;-8.30;99.90;;;;;;5075595;28;20267;-75
2022/12/18 04:02:43;;;;;;;90.80;35.20;;;-8.40;99.90;;;;;;5075416;28;20199;-75
2022/12/18 04:05:11;;;;;;;90.17;35.57;;;-8.40;99.90;;;;;;5075410;28;20703;-75
2022/12/18 04:07:40;;;;;;;89.50;35.60;;;-8.40;99.90;;;;;;5075029;28;20658;-75
2022/12/18 04:10:08;;;;;;;86.70;34.10;;;-8.30;99.90;;;;;;5075062;28;20271;-75
2022/12/18 04:12:35;;;;;;;87.67;33.80;;;-8.30;99.90;;;;;;5075248;28;20194;-75
2022/12/18 04:15:03;;;;;;;88.23;34.17;;;-8.30;99.90;;;;;;5075118;28;20202;-75
2022/12/18 04:17:30;;;;;;;86.17;34.80;;;-8.20;99.90;;;;;;5074599;28;20681;-75
2022/12/18 04:19:56;;;;;;;80.20;34.47;;;-8.20;99.90;;;;;;5074845;28;20260;-75
2022/12/18 04:22:23;;;;;;;90.27;35.40;;;-8.20;99.90;;;;;;5074949;28;20202;-75
2022/12/18 04:24:50;;;;;;;87.30;34.00;;;-8.20;99.90;;;;;;5074811;28;20662;-75
2022/12/18 04:27:16;;;;;;;89.53;36.17;;;-8.20;99.90;;;;;;5074863;28;20193;-75
2022/12/18 04:29:43;;;;;;;85.40;35.77;;;-8.20;99.90;;;;;;5074823;28;20248;-75
2022/12/18 04:32:11;;;;;;;91.57;36.57;;;-8.20;99.90;;;;;;5074702;28;20224;-75
2022/12/18 04:34:38;;;;;;;79.37;32.27;;;-8.20;99.90;;;;;;5074864;28;20203;-75
2022/12/18 04:37:04;;;;;;;88.77;33.73;;;-8.20;99.90;;;;;;5074757;28;20276;-75
2022/12/18 04:39:31;;;;;;;80.33;32.77;;;-8.20;99.90;;;;;;5074826;28;20198;-75
2022/12/18 04:42:01;;;;;;;85.60;32.97;;;-8.10;99.90;;;;;;5075664;28;20611;-75
2022/12/18 04:44:27;;;;;;;76.27;30.43;;;-8.10;99.90;;;;;;5077408;28;20243;-74
2022/12/18 04:46:54;;;;;;;72.40;29.17;;;-8.10;99.90;;;;;;5078240;28;20201;-75
2022/12/18 04:49:22;;;;;;;81.53;31.53;;;-8.00;99.90;;;;;;5081210;28;20659;-76
2022/12/18 04:51:49;;;;;;;73.13;29.97;;;-8.00;99.90;;;;;;5081820;28;20256;-75
2022/12/18 04:54:15;;;;;;;69.07;30.53;;;-7.90;99.90;;;;;;5079268;28;20260;-75
2022/12/18 04:56:42;;;;;;;72.17;28.77;;;-7.90;99.90;;;;;;5074924;28;20244;-74
2022/12/18 04:59:09;;;;;;;63.67;27.90;;;-7.90;99.90;;;;;;5074491;28;20198;-75
2022/12/18 05:01:35;;;;;;;69.03;29.60;;;-7.90;99.90;;;;;;5074543;28;20230;-75
2022/12/18 05:04:02;;;;;;;75.93;29.67;;;-7.90;99.90;;;;;;5074377;28;20233;-75
2022/12/18 05:06:30;;;;;;;70.03;27.90;;;-7.90;99.90;;;;;;5074195;28;20202;-74
2022/12/18 05:08:57;;;;;;;64.50;26.57;;;-8.00;99.90;;;;;;5074120;28;20253;-75
2022/12/18 05:11:23;;;;;;;63.93;26.23;;;-8.00;99.90;;;;;;5074280;28;20194;-75
2022/12/18 05:13:50;;;;;;;69.60;25.67;;;-8.10;99.90;;;;;;5074412;28;20666;-75
2022/12/18 05:16:17;;;;;;;66.07;24.73;;;-8.10;99.90;;;;;;5074133;28;20201;-75
2022/12/18 05:18:44;;;;;;;55.63;23.50;;;-8.10;99.90;;;;;;5073989;28;20198;-75
2022/12/18 05:21:10;;;;;;;60.57;23.57;;;-8.00;99.90;;;;;;5073895;28;20229;-74
2022/12/18 05:23:38;;;;;;;62.93;24.93;;;-8.00;99.90;;;;;;5073736;28;20719;-75
2022/12/18 05:26:07;;;;;;;66.70;24.97;;;-7.90;99.90;;;;;;5073980;28;20203;-74
2022/12/18 05:28:35;;;;;;;53.30;23.23;;;-7.90;99.90;;;;;;5073778;28;20197;-75
2022/12/18 05:31:03;;;;;;;59.70;23.10;;;-7.90;99.90;;;;;;5074008;28;20229;-75
2022/12/18 05:33:33;;;;;;;65.73;25.40;;;-7.90;99.90;;;;;;5073807;28;20202;-75
2022/12/18 05:36:02;;;;;;;62.10;23.73;;;-7.80;99.90;;;;;;5073626;28;20209;-75
2022/12/18 05:38:31;;;;;;;61.80;25.13;;;-7.80;99.90;;;;;;5073818;28;20231;-75
2022/12/18 05:40:59;;;;;;;57.97;22.73;;;-7.80;99.90;;;;;;5073853;28;20228;-75
2022/12/18 05:43:27;;;;;;;61.67;23.27;;;-7.70;99.90;;;;;;5073783;28;20199;-75
2022/12/18 05:45:54;;;;;;;63.73;25.33;;;-7.70;99.90;;;;;;5073722;28;20198;-75
2022/12/18 05:48:22;;;;;;;60.90;24.13;;;-7.70;99.90;;;;;;5073478;28;20197;-75
2022/12/18 05:50:50;;;;;;;59.13;24.20;;;-7.70;99.90;;;;;;5073281;28;20552;-76
2022/12/18 05:53:19;;;;;;;60.97;25.37;;;-7.70;99.90;;;;;;5073970;28;20201;-75
2022/12/18 05:55:47;;;;;;;62.30;25.17;;;-7.70;99.90;;;;;;5075689;28;20745;-75
2022/12/18 05:58:15;;;;;;;55.70;24.13;;;-7.70;99.90;;;;;;5077967;28;20195;-75
2022/12/18 06:00:45;;;;;;;61.87;24.97;;;-7.70;99.90;;;;;;5077710;28;20217;-75
2022/12/18 06:03:13;;;;;;;67.27;25.33;;;-7.60;99.90;;;;;;5078237;28;20193;-75
2022/12/18 06:05:41;;;;;;;58.83;24.43;;;-7.60;99.90;;;;;;5077399;28;20662;-75
2022/12/18 06:08:08;;;;;;;65.50;25.47;;;-7.50;99.90;;;;;;5077694;28;20270;-75
2022/12/18 06:10:35;;;;;;;60.17;25.20;;;-7.50;99.90;;;;;;5077114;28;20710;-75
2022/12/18 06:13:02;;;;;;;61.73;24.13;;;-7.50;99.90;;;;;;5077680;28;20203;-75
2022/12/18 06:15:30;;;;;;;62.13;25.23;;;-7.50;99.90;;;;;;5077335;28;20250;-75
2022/12/18 06:17:57;;;;;;;63.90;25.47;;;-7.50;99.90;;;;;;5083614;28;20603;-74
2022/12/18 06:20:23;;;;;;;61.47;25.43;;;-7.50;99.90;;;;;;5078038;28;20196;-75
2022/12/18 06:22:50;;;;;;;59.23;24.40;;;-7.50;99.90;;;;;;5077959;28;20207;-74
2022/12/18 06:25:17;;;;;;;53.73;22.57;;;-7.50;99.90;;;;;;5077947;28;20196;-75
2022/12/18 06:27:44;;;;;;;58.67;23.20;;;-7.40;99.90;;;;;;5077399;28;20203;-75
2022/12/18 06:30:12;;;;;;;57.30;22.93;;;-7.40;99.90;;;;;;5077517;28;20620;-75
2022/12/18 06:32:40;;;;;;;61.87;23.73;;;-7.40;99.90;;;;;;5077438;28;20223;-75
2022/12/18 06:35:07;;;;;;;61.27;24.47;;;-7.40;99.90;;;;;;5076945;28;20249;-75
2022/12/18 06:37:34;;;;;;;60.97;24.63;;;-7.30;99.90;;;;;;5077155;28;20602;-75
2022/12/18 06:40:01;;;;;;;60.40;23.03;;;-7.30;99.90;;;;;;5077221;28;20226;-75
2022/12/18 06:42:30;;;;;;;56.83;23.80;;;-7.30;99.90;;;;;;5076674;28;20227;-75
2022/12/18 06:44:56;;;;;;;58.33;22.87;;;-7.20;99.90;;;;;;5077120;28;20197;-74
2022/12/18 06:47:23;;;;;;;57.87;24.73;;;-7.20;99.90;;;;;;5076775;28;20202;-74
2022/12/18 06:49:51;;;;;;;55.43;23.60;;;-7.20;99.90;;;;;;5076605;28;20194;-75
2022/12/18 06:52:17;;;;;;;54.97;23.43;;;-7.20;99.90;;;;;;5076885;28;20249;-75
2022/12/18 06:54:44;;;;;;;64.13;26.07;;;-7.10;99.90;;;;;;5076695;28;20229;-75
2022/12/18 06:57:11;;;;;;;58.00;21.67;;;-7.10;99.90;;;;;;5076634;28;20202;-74
2022/12/18 06:59:37;;;;;;;54.97;21.63;;;-7.10;99.90;;;;;;5076695;28;20275;-75
2022/12/18 07:02:04;;;;;;;58.00;22.60;;;-7.00;99.90;;;;;;5076576;28;20227;-75
2022/12/18 07:04:31;;;;;;;57.30;23.93;;;-7.00;99.90;;;;;;5076632;28;20206;-75
2022/12/18 07:06:59;;;;;;;59.30;21.50;;;-7.00;99.90;;;;;;5076471;28;20280;-75
2022/12/18 07:09:26;;;;;;;58.93;23.60;;;-7.00;99.90;;;;;;5076385;28;20555;-74
2022/12/18 07:11:52;;;;;;;54.77;23.37;;;-6.90;99.90;;;;;;5076809;28;20200;-74
2022/12/18 07:14:19;;;;;;;55.73;22.13;;;-6.90;99.90;;;;;;5076483;28;20203;-75
2022/12/18 07:16:46;;;;;;;50.50;21.03;;;-6.90;99.90;;;;;;5076812;28;20195;-75
2022/12/18 07:19:12;;;;;;;53.87;22.03;;;-6.90;99.90;;;;;;5076245;28;20250;-75
2022/12/18 07:21:39;;;;;;;54.80;21.73;;;-6.80;99.90;;;;;;5076251;28;20287;-75
2022/12/18 07:24:08;;;;;;;56.73;22.60;;;-6.80;99.90;;;;;;5076653;28;20200;-75
2022/12/18 07:26:35;;;;;;;52.23;21.00;;;-6.70;99.90;;;;;;5076293;28;20203;-74
2022/12/18 07:29:01;;;;;;;57.80;21.93;;;-6.70;99.90;;;;;;5077953;28;20197;-74
2022/12/18 07:31:28;;;;;;;57.63;24.43;;;-6.60;99.90;;;;;;5077445;28;20602;-75
2022/12/18 07:33:56;;;;;;;48.23;21.40;;;-6.60;99.90;;;;;;5077093;28;20219;-75
2022/12/18 07:36:23;;;;;;;53.10;21.63;;;-6.50;99.90;;;;;;5076384;28;20670;-75
2022/12/18 07:38:51;;;;;;;56.40;24.37;;;-6.50;99.90;;;;;;5076201;28;20219;-75
2022/12/18 07:41:19;;;;;;;47.83;20.77;;;-6.40;99.90;;;;;;5076008;28;20220;-75
2022/12/18 07:43:47;;;;;;;44.77;20.07;;;-6.40;99.90;;;;;;5076147;28;20200;-75
2022/12/18 07:46:15;;;;;;;55.00;22.03;;;-6.30;99.90;;;;;;5075782;28;20200;-75
2022/12/18 07:48:42;;;;;;;50.90;20.93;;;-6.30;99.90;;;;;;5075638;28;20248;-75
2022/12/18 07:51:13;;;;;;;54.43;23.07;;;-6.30;99.90;;;;;;5075266;28;20251;-75
2022/12/18 07:53:40;;;;;;;47.13;20.27;;;-6.20;99.90;;;;;;5075894;28;20195;-75
2022/12/18 07:56:09;;;;;;;51.90;21.30;;;-6.20;99.90;;;;;;5075579;28;20255;-74
2022/12/18 07:58:38;;;;;;;50.17;20.83;;;-6.20;99.90;;;;;;5075447;28;20224;-75
2022/12/18 08:01:06;;;;;;;53.33;20.47;;;-6.00;99.90;;;;;;5075261;28;20196;-75
2022/12/18 08:03:32;;;;;;;51.20;21.17;;;-5.90;99.90;;;;;;5075544;28;20197;-75
2022/12/18 08:06:00;;;;;;;45.40;20.13;;;-5.90;99.90;;;;;;5075302;28;20200;-75
2022/12/18 08:08:27;;;;;;;53.80;21.43;;;-5.80;99.90;;;;;;5075036;28;20751;-75
2022/12/18 08:10:54;;;;;;;48.93;22.03;;;-5.80;99.90;;;;;;5076060;28;20228;-75
2022/12/18 08:13:20;;;;;;;48.37;19.57;;;-5.70;99.90;;;;;;5075718;28;20197;-75
2022/12/18 08:15:56;;;;;;;53.17;20.70;;;-5.70;99.90;;;;;;5075024;28;20189;-76
2022/12/18 08:18:23;;;;;;;56.33;22.30;;;-5.70;99.90;;;;;;5074903;28;20706;-76
2022/12/18 08:20:50;;;;;;;48.93;22.23;;;-5.60;99.90;;;;;;5074324;28;20201;-76
2022/12/18 08:23:16;;;;;;;48.30;21.13;;;-5.50;99.90;;;;;;5073975;28;20274;-74
2022/12/18 08:25:43;;;;;;;53.57;22.10;;;-5.50;99.90;;;;;;5073178;28;20274;-72
2022/12/18 08:28:10;;;;;;;48.40;20.53;;;-5.40;99.90;;;;;;5075175;28;20200;-73
2022/12/18 08:30:37;;;;;;;48.87;22.13;;;-5.30;99.90;;;;;;5074273;28;20196;-73
2022/12/18 08:33:06;;;;;;;52.90;22.57;;;-5.30;99.90;;;;;;5074443;28;20262;-73
2022/12/18 08:35:36;;;;;;;48.47;20.73;;;-5.30;99.90;;;;;;5074439;28;20238;-73
2022/12/18 08:38:02;;;;;;;44.40;20.13;;;-5.30;99.90;;;;;;5074725;28;20247;-73
2022/12/18 08:40:29;;;;;;;45.23;20.00;;;-5.30;99.90;;;;;;5074362;28;20201;-73
2022/12/18 08:45:40;;;;;;;49.30;21.47;;;-5.10;99.90;;;;;;5074521;28;20709;-72
2022/12/18 08:48:08;;;;;;;43.13;19.40;;;-5.00;99.90;;;;;;5074173;28;20599;-73
2022/12/18 08:50:34;;;;;;;45.57;19.37;;;-5.10;99.90;;;;;;5074289;28;20652;-74
2022/12/18 08:53:01;;;;;;;50.50;20.93;;;-5.20;99.90;;;;;;5074469;28;20205;-74
2022/12/18 08:55:28;;;;;;;46.70;20.43;;;-5.10;99.90;;;;;;5074566;28;20691;-74
2022/12/18 08:57:55;;;;;;;44.77;20.77;;;-5.00;99.90;;;;;;5074387;28;20595;-74
2022/12/18 09:00:21;;;;;;;46.57;20.17;;;-4.90;99.90;;;;;;5074739;28;20204;-73
2022/12/18 09:02:48;;;;;;;46.83;20.57;;;-4.80;99.90;;;;;;5074435;28;20285;-73
2022/12/18 09:05:16;;;;;;;43.70;21.00;;;-4.80;99.90;;;;;;5074818;28;20250;-74
2022/12/18 09:07:43;;;;;;;46.43;20.57;;;-4.80;99.90;;;;;;5076012;28;20197;-74
2022/12/18 09:10:12;;;;;;;42.13;19.80;;;-4.70;99.90;;;;;;5077777;28;20256;-74
2022/12/18 09:12:38;;;;;;;42.17;19.70;;;-4.60;99.90;;;;;;5077052;28;20196;-74
2022/12/18 09:15:06;;;;;;;40.47;20.27;;;-4.60;99.90;;;;;;5075455;28;20602;-73
2022/12/18 09:17:33;;;;;;;44.30;20.30;;;-4.60;99.90;;;;;;5075407;28;20197;-73
2022/12/18 09:20:00;;;;;;;38.13;18.93;;;-4.50;99.90;;;;;;5075600;28;20212;-73
2022/12/18 09:22:27;;;;;;;40.53;19.60;;;-4.50;99.90;;;;;;5076907;28;20224;-73
2022/12/18 09:24:55;;;;;;;38.87;19.17;;;-4.50;99.90;;;;;;5074198;28;20200;-73
2022/12/18 09:27:22;;;;;;;44.30;20.37;;;-4.50;99.90;;;;;;5074035;28;20205;-73
2022/12/18 09:29:49;;;;;;;39.47;19.90;;;-4.30;99.90;;;;;;5072970;28;20231;-73
2022/12/18 09:32:15;;;;;;;39.00;18.53;;;-4.20;99.90;;;;;;5073640;28;20200;-73
2022/12/18 09:34:42;;;;;;;42.00;19.47;;;-4.20;99.90;;;;;;5073686;28;20205;-73
2022/12/18 09:37:09;;;;;;;42.27;20.10;;;-4.30;99.90;;;;;;5073479;28;20254;-73
2022/12/18 09:39:37;;;;;;;39.90;19.57;;;-4.20;99.90;;;;;;5073964;28;20194;-73
2022/12/18 09:42:04;;;;;;;38.97;19.37;;;-4.10;99.90;;;;;;5074178;28;20224;-73
2022/12/18 09:44:33;;;;;;;34.30;19.37;;;-4.00;99.90;;;;;;5073721;28;20197;-73
2022/12/18 09:47:10;;;;;;;37.87;19.37;;;-4.00;99.90;;;;;;5074287;28;20251;-74
2022/12/18 09:49:41;;;;;;;35.43;17.70;;;-3.90;99.90;;;;;;5073749;28;20201;-75
2022/12/18 09:52:14;;;;;;;37.27;18.17;;;-3.80;99.90;;;;;;5073672;28;20210;-75
2022/12/18 09:54:48;;;;;;;38.03;20.20;;;-3.70;99.90;;;;;;5074169;28;20244;-76
2022/12/18 09:57:18;;;;;;;40.50;19.37;;;-3.50;99.90;;;;;;5073791;28;20652;-76
2022/12/18 09:59:49;;;;;;;36.40;18.50;;;-3.50;99.90;;;;;;5074992;28;20250;-76
2022/12/18 10:02:18;;;;;;;34.47;18.10;;;-3.50;99.90;;;;;;5080377;28;20221;-74
2022/12/18 10:04:55;;;;;;;34.80;18.17;;;-3.50;99.90;;;;;;5080716;28;20224;-74
2022/12/18 10:07:32;;;;;;;38.40;18.30;;;-3.40;99.90;;;;;;5081447;28;20197;-74
2022/12/18 10:10:09;;;;;;;37.20;18.63;;;-3.40;99.90;;;;;;5074177;28;20230;-74
2022/12/18 10:12:45;;;;;;;34.97;16.57;;;-3.40;99.90;;;;;;5073577;28;20201;-74
2022/12/18 10:15:17;;;;;;;37.83;17.67;;;-3.40;99.90;;;;;;5074004;28;20295;-74
2022/12/18 10:17:48;;;;;;;37.77;18.57;;;-3.20;99.90;;;;;;5073706;28;20742;-75
2022/12/18 10:20:19;;;;;;;34.20;17.57;;;-2.80;99.90;;;;;;5073813;28;20258;-74
2022/12/18 10:22:56;;;;;;;38.20;18.67;;;-2.70;99.90;;;;;;5073181;28;20228;-75
2022/12/18 10:25:29;;;;;;;35.73;16.83;;;-2.80;99.90;;;;;;5073175;28;20204;-74
2022/12/18 10:27:58;;;;;;;31.50;16.93;;;-2.90;99.90;;;;;;5072423;28;20198;-76
2022/12/18 10:30:26;;;;;;;35.27;18.17;;;-2.90;99.90;;;;;;5072053;28;20243;-74
2022/12/18 10:32:54;;;;;;;31.43;17.00;;;-2.80;99.90;;;;;;5070379;28;20647;-74
2022/12/18 10:35:22;;;;;;;32.70;17.33;;;-2.90;99.90;;;;;;5069723;28;20596;-74
2022/12/18 10:38:05;;;;;;;30.53;17.03;;;-2.70;99.90;;;;;;5070588;28;20614;-74
2022/12/18 10:40:33;;;;;;;33.77;16.63;;;-3.10;99.90;;;;;;5069694;28;20258;-75
2022/12/18 10:43:05;;;;;;;33.83;16.80;;;-3.20;99.90;;;;;;5074409;28;20221;-75
2022/12/18 10:45:32;;;;;;;30.23;15.63;;;-3.30;99.90;;;;;;5074123;28;20210;-75
2022/12/18 10:47:59;;;;;;;32.33;16.70;;;-3.50;99.90;;;;;;5074138;28;20198;-74
2022/12/18 10:50:32;;;;;;;37.03;18.00;;;-3.40;99.90;;;;;;5076235;28;20195;-75
2022/12/18 10:53:01;;;;;;;32.43;17.27;;;-3.30;99.90;;;;;;5081386;28;20230;-73
2022/12/18 10:55:34;;;;;;;36.20;18.87;;;-3.10;99.90;;;;;;5077152;28;20212;-75
2022/12/18 10:58:18;;;;;;;31.03;16.87;;;-3.10;99.90;;;;;;5086173;28;20221;-74
2022/12/18 11:00:46;;;;;;;31.23;16.97;;;-3.10;99.90;;;;;;5085964;28;20263;-74
2022/12/18 11:03:32;;;;;;;33.60;17.40;;;-3.10;99.90;;;;;;5085311;28;20229;-75
2022/12/18 11:06:08;;;;;;;32.00;17.50;;;-3.00;99.90;;;;;;5085230;28;20204;-73
2022/12/18 11:08:35;;;;;;;34.50;17.87;;;-2.80;99.90;;;;;;5083272;28;20204;-74
2022/12/18 11:11:05;;;;;;;31.53;17.33;;;-2.40;99.90;;;;;;5074071;28;20206;-72
2022/12/18 11:13:32;;;;;;;36.03;18.70;;;-2.00;99.90;;;;;;5073524;28;20737;-74
2022/12/18 11:16:00;;;;;;;33.83;18.27;;;-1.50;99.90;;;;;;5073627;28;20747;-73
2022/12/18 11:18:29;;;;;;;29.93;16.63;;;-1.10;99.90;;;;;;5074107;28;20939;-73
2022/12/18 11:20:58;;;;;;;29.23;17.13;;;-1.40;99.90;;;;;;5074133;28;20225;-74
2022/12/18 11:23:26;;;;;;;33.67;18.37;;;-1.30;99.90;;;;;;5074195;28;20229;-74
2022/12/18 11:25:56;;;;;;;33.97;18.47;;;-1.50;99.90;;;;;;5073963;28;20205;-74
2022/12/18 11:28:30;;;;;;;30.07;16.57;;;-1.40;99.90;;;;;;5075120;28;20197;-74
2022/12/18 11:31:22;;;;;;;30.67;17.07;;;-1.40;99.90;;;;;;5078569;28;20197;-74
2022/12/18 11:33:57;;;;;;;30.63;16.83;;;-0.80;99.90;;;;;;5078823;28;20227;-74
2022/12/18 11:36:24;;;;;;;30.27;17.03;;;0.40;99.90;;;;;;5080371;28;20234;-74
2022/12/18 11:38:54;;;;;;;29.60;17.63;;;2.60;99.90;;;;;;5076582;28;20193;-74
2022/12/18 11:42:08;;;;;;;26.03;17.00;;;3.70;99.90;;;;;;5079255;28;20199;-74
2022/12/18 11:44:23;;;;;;;25.40;16.80;;;4.20;99.90;;;;;;5078927;28;20224;-74
2022/12/18 11:46:55;;;;;;;25.53;17.47;;;4.50;99.90;;;;;;5073333;28;20189;-73
2022/12/18 11:49:26;;;;;;;25.10;17.47;;;4.00;99.90;;;;;;5072436;28;20283;-74
2022/12/18 11:51:59;;;;;;;26.57;17.33;;;3.40;99.90;;;;;;5074736;28;20656;-73
2022/12/18 11:54:26;;;;;;;26.03;17.17;;;2.90;99.90;;;;;;5094658;28;20200;-73
2022/12/18 11:56:59;;;;;;;24.93;16.90;;;3.10;99.90;;;;;;5102867;28;20763;-74
2022/12/18 11:59:36;;;;;;;26.43;17.57;;;2.90;99.90;;;;;;5101109;28;20201;-74
2022/12/18 12:02:17;;;;;;;23.90;16.37;;;2.80;99.90;;;;;;5104036;28;20200;-75
2022/12/18 12:04:59;;;;;;;26.63;16.83;;;2.50;99.90;;;;;;5102753;28;20196;-76
2022/12/18 12:07:40;;;;;;;25.60;16.93;;;2.70;99.90;;;;;;5104257;28;20332;-76
2022/12/18 12:10:23;;;;;;;26.83;16.97;;;2.10;99.90;;;;;;5099242;28;20239;-75
2022/12/18 12:13:04;;;;;;;25.03;16.80;;;1.30;99.90;;;;;;5081684;28;20197;-75
2022/12/18 12:15:39;;;;;;;28.87;16.90;;;0.90;99.90;;;;;;5085897;28;20594;-76
2022/12/18 12:18:22;;;;;;;28.87;17.30;;;0.30;99.90;;;;;;5101889;28;20200;-78
2022/12/18 12:20:58;;;;;;;29.97;17.53;;;-0.30;99.90;;;;;;5105140;28;20200;-78
2022/12/18 12:23:40;;;;;;;29.37;17.87;;;-0.50;99.90;;;;;;5103678;28;20281;-77
2022/12/18 12:26:10;;;;;;;30.13;18.30;;;-0.60;99.90;;;;;;5104806;28;20196;-78
2022/12/18 12:29:00;;;;;;;31.17;18.00;;;-0.40;99.90;;;;;;5091553;28;20201;-78
2022/12/18 12:31:43;;;;;;;29.00;17.63;;;-0.20;99.90;;;;;;5061780;28;20265;-78
2022/12/18 12:34:18;;;;;;;29.17;16.93;;;0.00;99.90;;;;;;5059508;28;20205;-77
2022/12/18 12:37:04;;;;;;;29.83;17.80;;;-0.20;99.90;;;;;;5059762;28;20252;-78
2022/12/18 12:39:35;;;;;;;30.93;18.07;;;0.10;99.90;;;;;;5059284;28;20665;-78
2022/12/18 12:44:52;;;;;;;29.50;17.43;;;0.30;99.90;;;;;;5077205;28;20204;-78
2022/12/18 12:47:24;;;;;;;27.80;17.40;;;0.10;99.90;;;;;;5079721;28;20210;-80